createdAt,value
2018-02-05T00:00:23.084Z,16.43
2018-02-05T00:02:50.951Z,14.50
2018-02-05T00:05:18.793Z,14.43
2018-02-05T00:07:46.559Z,13.10
2018-02-05T00:10:14.456Z,17.20
2018-02-05T00:12:42.400Z,14.70
2018-02-05T00:15:10.406Z,16.83
2018-02-05T00:17:38.390Z,14.97
2018-02-05T00:20:07.120Z,15.20
2018-02-05T00:22:35.196Z,17.97
2018-02-05T00:25:03.074Z,17.53
2018-02-05T00:27:30.983Z,16.67
2018-02-05T00:29:59.517Z,18.43
2018-02-05T00:32:27.474Z,16.50
2018-02-05T00:34:55.342Z,19.07
2018-02-05T00:37:23.106Z,16.40
2018-02-05T00:39:50.869Z,20.13
2018-02-05T00:42:18.756Z,26.07
2018-02-05T00:44:46.568Z,18.73
2018-02-05T00:47:14.484Z,17.37
2018-02-05T00:49:42.228Z,19.70
2018-02-05T00:52:10.402Z,14.90
2018-02-05T00:54:38.290Z,17.00
2018-02-05T00:57:06.271Z,18.00
2018-02-05T00:59:34.051Z,16.87
2018-02-05T01:02:02.075Z,18.63
2018-02-05T01:04:30.063Z,14.40
2018-02-05T01:06:58.251Z,19.43
2018-02-05T01:09:26.208Z,19.27
2018-02-05T01:11:54.085Z,14.97
2018-02-05T01:14:22.028Z,16.13
2018-02-05T01:16:49.914Z,16.00
2018-02-05T01:19:18.399Z,13.10
2018-02-05T01:21:46.351Z,17.47
2018-02-05T01:24:14.322Z,18.50
2018-02-05T01:26:42.061Z,14.93
2018-02-05T01:29:10.131Z,12.73
2018-02-05T01:31:38.133Z,13.83
2018-02-05T01:34:05.877Z,14.47
2018-02-05T01:36:33.665Z,15.30
2018-02-05T01:39:01.631Z,14.47
2018-02-05T01:41:29.804Z,16.67
2018-02-05T01:43:57.950Z,13.83
2018-02-05T01:46:26.123Z,9.70
2018-02-05T01:48:53.955Z,11.83
2018-02-05T01:51:22.794Z,11.70
2018-02-05T01:53:50.688Z,13.23
2018-02-05T01:56:19.250Z,14.87
2018-02-05T01:58:47.094Z,12.17
2018-02-05T02:01:15.787Z,13.77
2018-02-05T02:03:43.666Z,10.87
2018-02-05T02:06:11.512Z,15.83
2018-02-05T02:08:39.413Z,12.07
2018-02-05T02:11:07.444Z,12.50
2018-02-05T02:13:35.247Z,11.37
2018-02-05T02:16:03.094Z,11.50
2018-02-05T02:18:30.945Z,14.33
2018-02-05T02:20:58.982Z,15.87
2018-02-05T02:23:26.780Z,17.27
2018-02-05T02:25:54.595Z,15.50
2018-02-05T02:28:23.238Z,13.00
2018-02-05T02:30:50.991Z,18.23
2018-02-05T02:33:18.874Z,16.30
2018-02-05T02:35:46.727Z,14.73
2018-02-05T02:38:14.466Z,14.97
2018-02-05T02:40:42.362Z,13.33
2018-02-05T02:43:10.112Z,13.47
2018-02-05T02:45:37.855Z,15.30
2018-02-05T02:48:05.620Z,22.73
2018-02-05T02:50:33.342Z,13.90
2018-02-05T02:53:01.177Z,14.70
2018-02-05T02:55:29.045Z,13.73
2018-02-05T02:57:56.908Z,11.60
2018-02-05T03:00:24.774Z,12.47
2018-02-05T03:02:52.639Z,14.70
2018-02-05T03:05:20.434Z,14.67
2018-02-05T03:07:48.286Z,13.43
2018-02-05T03:10:16.158Z,14.03
2018-02-05T03:12:44.019Z,14.30
2018-02-05T03:15:11.979Z,14.43
2018-02-05T03:17:40.252Z,13.03
2018-02-05T03:20:08.112Z,16.97
2018-02-05T03:22:36.057Z,12.27
2018-02-05T03:25:04.069Z,15.83
2018-02-05T03:27:31.830Z,16.00
2018-02-05T03:29:59.844Z,14.00
2018-02-05T03:32:28.350Z,17.10
2018-02-05T03:34:56.163Z,11.40
2018-02-05T03:37:24.841Z,11.97
2018-02-05T03:39:52.597Z,12.47
2018-02-05T03:42:20.464Z,13.70
2018-02-05T03:44:48.529Z,13.20
2018-02-05T03:47:16.330Z,10.87
2018-02-05T03:49:45.193Z,13.13
2018-02-05T03:52:13.114Z,15.17
2018-02-05T03:54:41.677Z,16.30
2018-02-05T03:57:10.683Z,12.30
2018-02-05T03:59:38.501Z,13.47
2018-02-05T04:02:06.259Z,15.93
2018-02-05T04:04:34.069Z,14.60
2018-02-05T04:07:08.384Z,13.53
2018-02-05T04:09:36.316Z,15.70
2018-02-05T04:12:04.182Z,14.20
2018-02-05T04:14:32.190Z,13.77
2018-02-05T04:17:00.695Z,11.90
2018-02-05T04:19:28.594Z,13.30
2018-02-05T04:21:56.777Z,18.97
2018-02-05T04:24:24.639Z,17.97
2018-02-05T04:26:52.715Z,13.13
2018-02-05T04:29:21.292Z,11.93
2018-02-05T04:31:49.239Z,12.57
2018-02-05T04:34:17.113Z,17.77
2018-02-05T04:36:44.995Z,15.77
2018-02-05T04:39:12.855Z,13.37
2018-02-05T04:41:40.620Z,17.87
2018-02-05T04:44:08.471Z,15.73
2018-02-05T04:46:36.305Z,16.07
2018-02-05T04:49:04.323Z,14.43
2018-02-05T04:51:32.199Z,18.70
2018-02-05T04:54:00.155Z,15.67
2018-02-05T04:56:28.165Z,17.83
2018-02-05T04:58:55.981Z,13.40
2018-02-05T05:01:23.845Z,18.30
2018-02-05T05:03:51.618Z,19.73
2018-02-05T05:06:19.467Z,19.30
2018-02-05T05:08:47.289Z,19.47
2018-02-05T05:11:16.014Z,16.20
2018-02-05T05:13:43.889Z,20.40
2018-02-05T05:16:12.064Z,16.70
2018-02-05T05:18:40.116Z,15.67
2018-02-05T05:21:08.305Z,16.20
2018-02-05T05:23:36.203Z,18.17
2018-02-05T05:26:04.159Z,18.50
2018-02-05T05:28:31.922Z,19.00
2018-02-05T05:31:00.406Z,19.50
2018-02-05T05:33:28.214Z,18.17
2018-02-05T05:35:56.099Z,19.73
2018-02-05T05:38:23.862Z,19.47
2018-02-05T05:40:51.748Z,16.93
2018-02-05T05:43:19.507Z,16.30
2018-02-05T05:45:47.377Z,17.03
2018-02-05T05:48:15.353Z,11.53
2018-02-05T05:50:43.236Z,15.47
2018-02-05T05:53:10.992Z,18.50
2018-02-05T05:55:38.777Z,15.20
2018-02-05T05:58:06.546Z,18.43
2018-02-05T06:00:35.099Z,20.57
2018-02-05T06:03:03.076Z,16.20
2018-02-05T06:05:31.042Z,26.20
2018-02-05T06:07:58.946Z,15.47
2018-02-05T06:10:27.698Z,18.70
2018-02-05T06:12:55.570Z,17.77
2018-02-05T06:15:23.518Z,19.77
2018-02-05T06:17:51.378Z,18.13
2018-02-05T06:20:19.257Z,20.47
2018-02-05T06:22:47.051Z,17.93
2018-02-05T06:25:15.189Z,21.10
2018-02-05T06:27:42.940Z,24.07
2018-02-05T06:30:11.056Z,22.43
2018-02-05T06:32:39.498Z,69.90
2018-02-05T06:35:07.282Z,47.57
2018-02-05T06:37:35.345Z,46.77
2018-02-05T06:40:04.020Z,44.30
2018-02-05T06:42:32.089Z,60.00
2018-02-05T06:44:59.920Z,59.10
2018-02-05T06:47:28.762Z,53.23
2018-02-05T06:49:57.349Z,46.57
2018-02-05T06:52:46.017Z,30.17
2018-02-05T06:55:39.583Z,21.17
2018-02-05T06:58:07.434Z,20.97
2018-02-05T07:00:35.201Z,22.00
2018-02-05T07:03:03.166Z,21.07
2018-02-05T07:05:31.150Z,20.10
2018-02-05T07:07:59.124Z,18.03
2018-02-05T07:10:27.053Z,19.83
2018-02-05T07:12:54.825Z,19.23
2018-02-05T07:15:22.739Z,18.10
2018-02-05T07:17:50.574Z,18.90
2018-02-05T07:20:19.163Z,25.83
2018-02-05T07:22:46.998Z,21.07
2018-02-05T07:25:14.884Z,21.07
2018-02-05T07:27:43.617Z,20.17
2018-02-05T07:30:12.253Z,25.13
2018-02-05T07:32:40.105Z,21.73
2018-02-05T07:35:08.004Z,21.90
2018-02-05T07:37:35.968Z,19.70
2018-02-05T07:40:03.830Z,17.30
2018-02-05T07:42:44.477Z,26.23
2018-02-05T07:45:14.804Z,31.27
2018-02-05T07:47:51.997Z,28.10
2018-02-05T07:50:22.129Z,20.63
2018-02-05T07:52:59.643Z,28.07
2018-02-05T07:55:44.567Z,18.57
2018-02-05T07:58:28.454Z,20.80
2018-02-05T08:01:03.485Z,14.40
2018-02-05T08:03:40.914Z,19.17
2018-02-05T08:06:14.983Z,17.63
2018-02-05T08:08:49.107Z,15.33
2018-02-05T08:11:26.082Z,13.97
2018-02-05T08:13:54.814Z,14.80
2018-02-05T08:16:22.589Z,14.80
2018-02-05T08:18:50.457Z,15.33
2018-02-05T08:21:18.443Z,17.50
2018-02-05T08:23:47.002Z,13.43
2018-02-05T08:26:14.846Z,16.57
2018-02-05T08:28:42.644Z,16.43
2018-02-05T08:31:10.596Z,15.30
2018-02-05T08:33:38.459Z,12.43
2018-02-05T08:36:06.254Z,18.00
2018-02-05T08:38:34.268Z,18.83
2018-02-05T08:41:02.265Z,21.30
2018-02-05T08:43:30.949Z,22.30
2018-02-05T08:45:58.975Z,15.77
2018-02-05T08:48:27.629Z,20.83
2018-02-05T08:50:55.574Z,20.70
2018-02-05T08:53:23.545Z,17.87
2018-02-05T08:55:51.409Z,18.93
2018-02-05T08:58:19.378Z,21.47
2018-02-05T09:00:47.245Z,29.07
2018-02-05T09:03:15.105Z,18.60
2018-02-05T09:05:43.086Z,20.67
2018-02-05T09:08:11.063Z,23.90
2018-02-05T09:10:38.951Z,22.53
2018-02-05T09:13:06.914Z,30.73
2018-02-05T09:15:34.858Z,22.73
2018-02-05T09:18:02.740Z,22.50
2018-02-05T09:20:30.719Z,34.63
2018-02-05T09:22:59.386Z,23.27
2018-02-05T09:25:27.135Z,26.03
2018-02-05T09:27:54.931Z,23.77
2018-02-05T09:30:22.786Z,19.57
2018-02-05T09:32:50.648Z,19.33
2018-02-05T09:35:18.420Z,29.37
2018-02-05T09:37:46.285Z,24.63
2018-02-05T09:40:14.152Z,17.33
2018-02-05T09:42:42.026Z,19.93
2018-02-05T09:45:09.844Z,20.43
2018-02-05T09:47:37.752Z,22.03
2018-02-05T09:50:05.595Z,19.83
2018-02-05T09:52:33.465Z,20.40
2018-02-05T09:55:01.358Z,15.37
2018-02-05T09:57:29.218Z,34.03
2018-02-05T09:59:56.989Z,17.10
2018-02-05T10:02:24.850Z,17.20
2018-02-05T10:04:52.796Z,21.40
2018-02-05T10:07:21.481Z,21.00
2018-02-05T10:09:49.779Z,24.53
2018-02-05T10:12:17.646Z,21.93
2018-02-05T10:14:45.593Z,22.60
2018-02-05T10:17:13.473Z,25.27
2018-02-05T10:19:42.257Z,18.77
2018-02-05T10:22:10.043Z,18.67
2018-02-05T10:24:37.988Z,19.50
2018-02-05T10:27:05.979Z,25.10
2018-02-05T10:29:33.917Z,19.60
2018-02-05T10:32:02.317Z,18.10
2018-02-05T10:34:30.117Z,21.87
2018-02-05T10:36:58.835Z,22.10
2018-02-05T10:39:26.630Z,21.50
2018-02-05T10:41:54.685Z,17.73
2018-02-05T10:44:22.470Z,17.60
2018-02-05T10:46:50.386Z,19.53
2018-02-05T10:49:18.384Z,19.80
2018-02-05T10:51:46.250Z,19.03
2018-02-05T10:54:15.161Z,18.40
2018-02-05T10:56:43.012Z,22.67
2018-02-05T10:59:11.082Z,22.00
2018-02-05T11:01:39.058Z,16.80
2018-02-05T11:04:06.949Z,19.23
2018-02-05T11:06:35.623Z,15.97
2018-02-05T11:09:03.542Z,17.83
2018-02-05T11:11:31.455Z,21.13
2018-02-05T11:13:59.508Z,18.50
2018-02-05T11:16:27.382Z,14.80
2018-02-05T11:18:55.141Z,18.67
2018-02-05T11:21:23.104Z,16.67
2018-02-05T11:23:51.817Z,19.80
2018-02-05T11:26:19.579Z,21.33
2018-02-05T11:28:47.339Z,17.33
2018-02-05T11:31:15.222Z,16.83
2018-02-05T11:33:43.154Z,17.80
2018-02-05T11:36:10.935Z,20.70
2018-02-05T11:38:38.784Z,14.20
2018-02-05T11:41:06.674Z,15.30
2018-02-05T11:43:34.641Z,16.17
2018-02-05T11:46:02.503Z,15.80
2018-02-05T11:48:30.455Z,12.90
2018-02-05T11:50:58.235Z,21.10
2018-02-05T11:53:26.068Z,18.17
2018-02-05T11:55:53.951Z,17.23
2018-02-05T11:58:21.763Z,15.60
2018-02-05T12:00:50.507Z,16.63
2018-02-05T12:03:18.487Z,19.07
2018-02-05T12:05:46.230Z,20.17
2018-02-05T12:08:14.014Z,33.50
2018-02-05T12:10:41.867Z,15.57
2018-02-05T12:13:09.655Z,16.57
2018-02-05T12:15:37.494Z,20.33
2018-02-05T12:18:05.996Z,17.93
2018-02-05T12:20:33.948Z,21.30
2018-02-05T12:23:02.018Z,21.97
2018-02-05T12:25:29.885Z,19.80
2018-02-05T12:27:57.854Z,19.27
2018-02-05T12:30:25.623Z,24.33
2018-02-05T12:32:54.020Z,18.80
2018-02-05T12:35:21.877Z,21.83
2018-02-05T12:37:49.746Z,21.37
2018-02-05T12:40:17.613Z,20.20
2018-02-05T12:42:45.521Z,24.13
2018-02-05T12:45:14.168Z,17.73
2018-02-05T12:47:42.045Z,23.50
2018-02-05T12:50:09.915Z,21.53
2018-02-05T12:52:37.848Z,22.27
2018-02-05T12:55:05.747Z,21.40
2018-02-05T12:57:36.242Z,24.47
2018-02-05T13:00:21.954Z,22.77
2018-02-05T13:03:05.664Z,22.53
2018-02-05T13:05:33.637Z,21.00
2018-02-05T13:08:02.125Z,19.60
2018-02-05T13:10:29.969Z,21.90
2018-02-05T13:12:57.744Z,21.03
2018-02-05T13:15:25.628Z,20.00
2018-02-05T13:17:53.386Z,23.47
2018-02-05T13:20:21.344Z,22.73
2018-02-05T13:22:49.227Z,21.50
2018-02-05T13:25:17.064Z,20.47
2018-02-05T13:27:44.832Z,24.00
2018-02-05T13:30:12.655Z,20.80
2018-02-05T13:32:41.214Z,19.57
2018-02-05T13:35:09.082Z,21.77
2018-02-05T13:37:36.929Z,25.53
2018-02-05T13:40:04.808Z,26.17
2018-02-05T13:42:32.777Z,19.30
2018-02-05T13:45:00.646Z,18.70
2018-02-05T13:47:28.513Z,22.17
2018-02-05T13:49:56.462Z,22.63
2018-02-05T13:52:24.348Z,23.60
2018-02-05T13:54:57.698Z,19.50
2018-02-05T13:57:25.511Z,22.30
2018-02-05T13:59:53.378Z,23.97
2018-02-05T14:02:21.199Z,19.50
2018-02-05T14:04:48.981Z,24.07
2018-02-05T14:07:17.172Z,25.30
2018-02-05T14:09:45.735Z,28.20
2018-02-05T14:12:13.602Z,20.20
2018-02-05T14:14:41.394Z,25.70
2018-02-05T14:17:09.266Z,24.93
2018-02-05T14:19:37.211Z,24.90
2018-02-05T14:22:04.986Z,22.73
2018-02-05T14:24:32.955Z,25.00
2018-02-05T14:27:01.032Z,26.70
2018-02-05T14:29:29.627Z,19.43
2018-02-05T14:31:57.474Z,21.07
2018-02-05T14:34:25.338Z,22.90
2018-02-05T14:36:54.224Z,19.30
2018-02-05T14:39:22.026Z,25.37
2018-02-05T14:41:51.374Z,26.20
2018-02-05T14:44:19.366Z,23.70
2018-02-05T14:46:47.318Z,23.50
2018-02-05T14:49:15.213Z,26.87
2018-02-05T14:51:43.074Z,26.30
2018-02-05T14:54:10.842Z,27.67
2018-02-05T14:56:38.707Z,21.73
2018-02-05T14:59:08.105Z,20.63
2018-02-05T15:01:35.974Z,24.67
2018-02-05T15:04:03.919Z,22.13
2018-02-05T15:06:31.707Z,24.47
2018-02-05T15:09:00.170Z,22.00
2018-02-05T15:11:28.042Z,21.70
2018-02-05T15:13:55.915Z,22.20
2018-02-05T15:16:23.692Z,19.70
2018-02-05T15:18:51.553Z,25.33
2018-02-05T15:21:19.398Z,26.37
2018-02-05T15:23:47.379Z,23.30
2018-02-05T15:26:15.242Z,24.93
2018-02-05T15:28:43.096Z,22.53
2018-02-05T15:31:10.981Z,25.70
2018-02-05T15:33:38.929Z,25.63
2018-02-05T15:36:06.795Z,23.00
2018-02-05T15:38:34.550Z,24.00
2018-02-05T15:41:04.266Z,27.30
2018-02-05T15:43:32.154Z,22.70
2018-02-05T15:46:00.102Z,29.70
2018-02-05T15:48:27.938Z,27.10
2018-02-05T15:50:55.755Z,32.20
2018-02-05T15:53:23.517Z,25.17
2018-02-05T15:55:51.403Z,28.40
2018-02-05T15:58:19.263Z,28.13
2018-02-05T16:00:47.049Z,28.87
2018-02-05T16:03:15.560Z,27.57
2018-02-05T16:05:43.469Z,29.93
2018-02-05T16:08:11.249Z,30.93
2018-02-05T16:10:39.709Z,29.43
2018-02-05T16:13:07.559Z,42.93
2018-02-05T16:15:35.419Z,32.17
2018-02-05T16:18:03.389Z,30.30
2018-02-05T16:20:31.161Z,30.43
2018-02-05T16:22:59.125Z,35.70
2018-02-05T16:25:26.991Z,38.40
2018-02-05T16:27:54.766Z,41.67
2018-02-05T16:30:22.753Z,39.30
2018-02-05T16:32:52.125Z,34.33
2018-02-05T16:35:19.907Z,42.03
2018-02-05T16:37:47.765Z,43.23
2018-02-05T16:40:15.729Z,42.17
2018-02-05T16:42:43.572Z,38.17
2018-02-05T16:45:11.381Z,43.50
2018-02-05T16:47:39.352Z,41.33
2018-02-05T16:50:07.233Z,39.40
2018-02-05T16:52:35.912Z,34.70
2018-02-05T16:55:03.870Z,45.70
2018-02-05T16:57:31.689Z,35.53
2018-02-05T17:00:00.703Z,33.40
2018-02-05T17:02:28.670Z,44.30
2018-02-05T17:04:56.748Z,34.87
2018-02-05T17:07:25.001Z,43.73
2018-02-05T17:09:53.724Z,42.77
2018-02-05T17:12:21.602Z,35.07
2018-02-05T17:14:49.432Z,42.33
2018-02-05T17:17:17.421Z,51.33
2018-02-05T17:19:45.162Z,40.47
2018-02-05T17:22:12.960Z,46.83
2018-02-05T17:24:41.318Z,43.33
2018-02-05T17:27:09.420Z,50.53
2018-02-05T17:29:38.072Z,56.80
2018-02-05T17:32:06.038Z,46.10
2018-02-05T17:34:34.255Z,43.97
2018-02-05T17:37:02.967Z,38.67
2018-02-05T17:39:31.811Z,42.60
2018-02-05T17:41:59.579Z,40.83
2018-02-05T17:44:31.314Z,35.83
2018-02-05T17:46:59.200Z,34.20
2018-02-05T17:49:27.862Z,39.63
2018-02-05T17:51:55.854Z,38.03
2018-02-05T17:54:23.815Z,38.20
2018-02-05T17:56:51.696Z,35.77
2018-02-05T17:59:19.620Z,34.30
2018-02-05T18:01:48.318Z,40.77
2018-02-05T18:04:16.218Z,30.97
2018-02-05T18:06:44.131Z,32.30
2018-02-05T18:09:12.588Z,27.20
2018-02-05T18:11:41.243Z,29.00
2018-02-05T18:14:09.110Z,25.47
2018-02-05T18:16:36.980Z,32.67
2018-02-05T18:19:04.917Z,38.63
2018-02-05T18:21:32.797Z,34.53
2018-02-05T18:24:00.797Z,42.10
2018-02-05T18:26:28.722Z,34.03
2018-02-05T18:28:56.595Z,34.60
2018-02-05T18:31:24.582Z,38.77
2018-02-05T18:33:54.677Z,39.33
2018-02-05T18:36:22.746Z,57.13
2018-02-05T18:38:50.627Z,47.83
2018-02-05T18:41:18.800Z,43.17
2018-02-05T18:43:46.686Z,46.43
2018-02-05T18:46:15.283Z,46.00
2018-02-05T18:48:44.126Z,51.83
2018-02-05T18:51:12.197Z,45.37
2018-02-05T18:53:40.474Z,48.13
2018-02-05T18:56:08.377Z,55.00
2018-02-05T18:58:36.236Z,43.47
2018-02-05T19:01:04.380Z,45.87
2018-02-05T19:03:32.158Z,45.57
2018-02-05T19:06:00.053Z,45.47
2018-02-05T19:08:28.638Z,41.93
2018-02-05T19:10:57.384Z,49.10
2018-02-05T19:13:25.367Z,46.93
2018-02-05T19:15:53.335Z,59.83
2018-02-05T19:18:21.323Z,50.77
2018-02-05T19:20:50.036Z,50.17
2018-02-05T19:23:19.968Z,51.50
2018-02-05T19:25:50.212Z,53.43
2018-02-05T19:28:20.173Z,58.60
2018-02-05T19:30:50.223Z,53.30
2018-02-05T19:33:20.190Z,55.83
2018-02-05T19:35:49.850Z,55.73
2018-02-05T19:38:18.248Z,56.00
2018-02-05T19:40:47.522Z,63.63
2018-02-05T19:43:18.136Z,75.57
2018-02-05T19:45:48.300Z,62.33
2018-02-05T19:48:17.507Z,69.77
2018-02-05T19:50:46.590Z,71.73
2018-02-05T19:53:19.343Z,69.30
2018-02-05T19:55:49.354Z,80.60
2018-02-05T19:58:19.753Z,85.30
2018-02-05T20:00:49.728Z,89.17
2018-02-05T20:03:18.820Z,93.47
2018-02-05T20:05:48.137Z,86.97
2018-02-05T20:08:17.395Z,91.70
2018-02-05T20:10:45.699Z,87.70
2018-02-05T20:13:16.314Z,109.50
2018-02-05T20:15:46.391Z,74.77
2018-02-05T20:18:15.686Z,88.20
2018-02-05T20:20:45.795Z,69.60
2018-02-05T20:23:15.667Z,78.77
2018-02-05T20:25:49.137Z,75.90
2018-02-05T20:28:18.967Z,64.67
2018-02-05T20:30:49.537Z,70.80
2018-02-05T20:33:18.923Z,88.03
2018-02-05T20:35:48.387Z,86.13
2018-02-05T20:38:18.653Z,78.67
2018-02-05T20:40:49.227Z,96.73
2018-02-05T20:43:18.419Z,96.20
2018-02-05T20:45:48.083Z,73.27
2018-02-05T20:48:19.892Z,80.77
2018-02-05T20:50:49.509Z,71.73
2018-02-05T20:53:22.334Z,70.17
2018-02-05T20:55:58.065Z,76.27
2018-02-05T20:58:28.404Z,76.40
2018-02-05T21:00:58.201Z,84.87
2018-02-05T21:03:27.023Z,71.10
2018-02-05T21:05:55.191Z,66.23
2018-02-05T21:08:23.561Z,79.97
2018-02-05T21:10:51.876Z,72.93
2018-02-05T21:13:25.884Z,69.97
2018-02-05T21:15:55.783Z,73.83
2018-02-05T21:18:30.910Z,76.77
2018-02-05T21:21:00.497Z,63.33
2018-02-05T21:23:30.158Z,83.73
2018-02-05T21:26:00.466Z,73.40
2018-02-05T21:28:29.956Z,67.00
2018-02-05T21:30:59.036Z,73.30
2018-02-05T21:33:29.529Z,72.40
2018-02-05T21:35:57.713Z,65.83
2018-02-05T21:38:26.094Z,63.07
2018-02-05T21:40:54.972Z,69.70
2018-02-05T21:43:24.340Z,70.47
2018-02-05T21:45:54.754Z,72.40
2018-02-05T21:48:23.951Z,67.33
2018-02-05T21:50:57.123Z,62.37
2018-02-05T21:53:26.388Z,57.17
2018-02-05T21:55:56.609Z,55.90
2018-02-05T21:58:24.817Z,58.67
2018-02-05T22:00:52.788Z,63.17
2018-02-05T22:03:20.850Z,55.83
2018-02-05T22:05:48.751Z,65.50
2018-02-05T22:08:16.642Z,64.73
2018-02-05T22:10:45.585Z,61.53
2018-02-05T22:13:13.654Z,59.40
2018-02-05T22:15:41.638Z,70.13
2018-02-05T22:18:09.698Z,57.03
2018-02-05T22:20:40.429Z,58.33
2018-02-05T22:23:08.324Z,60.67
2018-02-05T22:25:36.293Z,69.33
2018-02-05T22:28:04.339Z,59.30
2018-02-05T22:30:32.417Z,60.07
2018-02-05T22:33:00.290Z,64.10
2018-02-05T22:35:28.516Z,60.90
2018-02-05T22:37:56.382Z,65.30
2018-02-05T22:40:24.621Z,66.27
2018-02-05T22:42:54.047Z,56.13
2018-02-05T22:45:21.890Z,60.37
2018-02-05T22:47:51.934Z,59.37
2018-02-05T22:50:21.410Z,56.30
2018-02-05T22:52:49.931Z,59.93
2018-02-05T22:55:18.579Z,61.17
2018-02-05T22:57:48.691Z,66.73
2018-02-05T23:00:17.485Z,57.93
2018-02-05T23:02:45.300Z,56.53
2018-02-05T23:05:13.064Z,65.63
2018-02-05T23:07:41.504Z,66.03
2018-02-05T23:10:10.364Z,77.03
2018-02-05T23:12:38.209Z,62.80
2018-02-05T23:15:06.383Z,68.03
2018-02-05T23:17:34.263Z,70.40
2018-02-05T23:20:02.189Z,66.97
2018-02-05T23:22:30.080Z,59.47
2018-02-05T23:24:58.082Z,69.40
2018-02-05T23:27:26.021Z,73.90
2018-02-05T23:29:53.793Z,57.90
2018-02-05T23:32:21.802Z,62.80
2018-02-05T23:34:49.642Z,65.13
2018-02-05T23:37:17.416Z,64.30
2018-02-05T23:39:45.656Z,57.57
2018-02-05T23:42:13.460Z,56.93
2018-02-05T23:44:41.218Z,64.27
2018-02-05T23:47:09.102Z,60.97
2018-02-05T23:49:38.560Z,66.73
2018-02-05T23:52:06.987Z,71.03
2018-02-05T23:54:35.718Z,58.77
2018-02-05T23:57:03.793Z,56.60
2018-02-05T23:59:31.786Z,59.60
